createdAt,value
2023-03-11T00:09:37.241Z,1.70
2023-03-11T00:19:38.698Z,1.47
2023-03-11T00:29:40.251Z,1.60
2023-03-11T00:39:41.638Z,1.13
2023-03-11T00:49:43.156Z,1.53
2023-03-11T00:59:44.610Z,1.40
2023-03-11T01:09:46.078Z,1.40
2023-03-11T01:19:48.317Z,1.57
2023-03-11T01:29:49.771Z,1.35
2023-03-11T01:39:51.391Z,1.27
2023-03-11T01:49:53.029Z,1.13
2023-03-11T01:59:58.314Z,1.13
2023-03-11T02:09:59.855Z,1.52
2023-03-11T02:20:29.885Z,1.80
2023-03-11T02:30:34.630Z,1.80
2023-03-11T02:40:48.753Z,2.33
2023-03-11T02:50:50.950Z,1.43
2023-03-11T03:00:52.428Z,1.50
2023-03-11T03:10:53.823Z,1.88
2023-03-11T03:20:55.223Z,1.92
2023-03-11T03:30:56.798Z,1.70
2023-03-11T03:40:58.160Z,1.70
2023-03-11T03:51:08.871Z,1.65
2023-03-11T04:01:11.972Z,1.70
2023-03-11T04:11:14.099Z,1.07
2023-03-11T04:21:15.808Z,1.40
2023-03-11T04:31:17.263Z,1.40
2023-03-11T04:41:19.017Z,2.10
2023-03-11T04:51:20.546Z,1.42
2023-03-11T05:01:22.107Z,1.67
2023-03-11T05:11:23.550Z,1.50
2023-03-11T05:21:25.011Z,1.23
2023-03-11T05:31:26.499Z,1.45
2023-03-11T05:41:27.858Z,1.70
2023-03-11T05:51:29.485Z,1.60
2023-03-11T06:01:30.908Z,2.00
2023-03-11T06:11:32.409Z,1.70
2023-03-11T06:21:33.833Z,1.53
2023-03-11T06:31:37.161Z,2.45
2023-03-11T06:41:38.627Z,1.65
2023-03-11T06:51:40.093Z,2.70
2023-03-11T07:01:41.443Z,2.07
2023-03-11T07:11:42.956Z,1.55
2023-03-11T07:21:44.535Z,1.57
2023-03-11T07:31:46.125Z,1.70
2023-03-11T07:41:47.630Z,1.48
2023-03-11T07:51:49.154Z,1.50
2023-03-11T08:01:50.768Z,1.27
2023-03-11T08:11:52.354Z,2.20
2023-03-11T08:21:53.828Z,1.83
2023-03-11T08:31:55.304Z,1.43
2023-03-11T08:41:56.814Z,2.23
2023-03-11T08:51:58.303Z,0.90
2023-03-11T09:01:59.785Z,1.07
2023-03-11T09:12:01.272Z,1.00
2023-03-11T09:22:04.109Z,1.00
2023-03-11T09:32:05.672Z,1.77
2023-03-11T09:42:22.158Z,0.67
2023-03-11T09:52:36.012Z,0.47
2023-03-11T10:02:38.166Z,0.98
2023-03-11T10:13:00.975Z,0.63
2023-03-11T10:23:10.105Z,0.73
2023-03-11T10:33:28.196Z,0.60
2023-03-11T10:43:40.444Z,0.83
2023-03-11T10:53:48.195Z,1.43
2023-03-11T11:03:52.267Z,0.90
2023-03-11T11:13:58.175Z,1.47
2023-03-11T11:24:05.036Z,1.00
2023-03-11T11:34:32.574Z,1.10
2023-03-11T11:44:34.955Z,1.40
2023-03-11T11:54:39.133Z,0.93
2023-03-11T12:05:01.156Z,0.90
2023-03-11T12:15:14.430Z,2.95
2023-03-11T12:25:29.558Z,0.90
2023-03-11T12:35:34.427Z,0.73
2023-03-11T12:45:51.244Z,0.90
2023-03-11T12:56:30.941Z,1.43
2023-03-11T13:06:47.637Z,1.50
2023-03-11T13:16:49.793Z,1.42
2023-03-11T13:27:19.934Z,2.30
2023-03-11T13:37:45.008Z,1.80
2023-03-11T13:47:49.632Z,1.53
2023-03-11T13:57:55.986Z,1.60
2023-03-11T14:08:18.036Z,1.53
2023-03-11T14:18:40.069Z,1.37
2023-03-11T14:28:47.581Z,2.15
2023-03-11T14:38:49.190Z,1.70
2023-03-11T14:48:51.450Z,1.90
2023-03-11T14:59:19.900Z,2.13
2023-03-11T15:09:24.017Z,0.90
2023-03-11T15:19:28.345Z,1.20
2023-03-11T15:29:30.692Z,1.30
2023-03-11T15:39:32.277Z,0.90
2023-03-11T15:49:33.956Z,1.50
2023-03-11T15:59:36.738Z,1.30
2023-03-11T16:09:38.142Z,0.93
2023-03-11T16:19:40.696Z,1.00
2023-03-11T16:29:42.266Z,0.80
2023-03-11T16:39:43.724Z,1.02
2023-03-11T16:49:45.364Z,0.90
2023-03-11T16:59:46.797Z,1.10
2023-03-11T17:09:48.254Z,0.87
2023-03-11T17:19:49.850Z,1.00
2023-03-11T17:29:51.366Z,0.80
2023-03-11T17:39:53.091Z,2.37
2023-03-11T17:49:54.501Z,1.02
2023-03-11T17:59:55.923Z,1.50
2023-03-11T18:09:57.488Z,1.50
2023-03-11T18:20:00.535Z,2.13
2023-03-11T18:30:02.277Z,2.97
2023-03-11T18:40:05.849Z,2.93
2023-03-11T18:50:07.574Z,3.50
2023-03-11T19:00:09.654Z,4.80
2023-03-11T19:10:12.347Z,4.70
2023-03-11T19:20:13.836Z,7.27
2023-03-11T19:30:15.302Z,6.32
2023-03-11T19:40:17.891Z,6.97
2023-03-11T19:50:19.593Z,7.20
2023-03-11T20:00:21.594Z,9.75
2023-03-11T20:10:23.042Z,6.43
2023-03-11T20:20:24.471Z,7.10
2023-03-11T20:30:26.615Z,7.57
2023-03-11T20:40:28.423Z,7.60
2023-03-11T20:50:29.921Z,9.03
2023-03-11T21:00:31.413Z,8.70
2023-03-11T21:10:33.041Z,8.40
2023-03-11T21:20:34.598Z,8.03
2023-03-11T21:30:36.591Z,7.50
2023-03-11T21:40:38.095Z,7.50
2023-03-11T21:50:40.972Z,6.88
2023-03-11T22:00:43.369Z,6.87
2023-03-11T22:10:44.798Z,6.93
2023-03-11T22:20:46.454Z,7.60
2023-03-11T22:30:48.331Z,9.23
2023-03-11T22:40:49.816Z,7.20
2023-03-11T22:50:51.273Z,6.05
2023-03-11T23:00:52.606Z,6.17
2023-03-11T23:10:54.460Z,5.07
2023-03-11T23:20:56.138Z,5.30
2023-03-11T23:30:57.656Z,5.20
2023-03-11T23:40:59.280Z,4.90
2023-03-11T23:51:00.889Z,5.00
